AirNav   Everest Fuels
 
 1076 users online  

MY52 Turkey Track Airport
Coates, Minnesota, USA

GOING TO COATES?


FAA INFORMATION EFFECTIVE 22 APRIL 2021

Location

FAA Identifier: MY52
Lat/Long: 44-43-06.8790N 093-02-38.7680W
44-43.114650N 093-02.646133W
44.7185775,-93.0441022
(estimated)
Elevation: 923 ft. / 281 m (estimated)
Variation: 03E (1985)
From city: 1 mile W of COATES, MN
Time zone: UTC -5 (UTC -6 during Standard Time)
Zip code: 55068

Airport Operations

Airport use: Private use, PERSONAL USE.
Activation date: 03/1983
Control tower: no
ARTCC: MINNEAPOLIS CENTER
FSS: PRINCETON FLIGHT SERVICE STATION
Attendance: UNATNDD
Segmented circle: no

Airport Communications

WX AWOS-3 at SGS (8 nm N): 119.425 (651-457-8120)
WX AWOS-3 at LVN (10 nm SW): 118.0 (952-469-5850)
WX ASOS at MSP (12 nm NW): 135.35 (612-713-4174)
WX ASOS at STP (13 nm N): 118.35 (651-312-8888)
WX AWOS-3 at SYN (15 nm S): 119.35 (507-664-3806)
WX AWOS-3 at 21D (19 nm NE): 120.075 (651-779-5949)
WX ASOS at FCM (19 nm W): 124.9 (952-941-4156)

Nearby radio navigation aids

VOR radial/distance  VOR name  Freq  Var
FGTr042/7.9FARMINGTON VORTAC115.7006E
MSPr140/13.5MINNEAPOLIS VOR/DME115.3002E
FCMr110/18.1FLYING CLOUD VOR/DME117.7001E
GEPr145/29.2GOPHER VORTAC117.3006E
FOWr022/33.9HALFWAY VOR/DME111.2002E

Airport Services

Runway Information

Runway 18/36

Dimensions: 2000 x 150 ft. / 610 x 46 m
Surface: turf
RUNWAY 18  RUNWAY 36
Traffic pattern: leftleft

Airport Ownership and Management from official FAA records

Ownership: Privately-owned
Owner: CRAIG FRANZMEIER
3033 160TH ST EAST
ROSEMOUNT, MN 55068
Phone (651) 423-2377
Manager: CRAIG FRANZMEIER
3033 160TH ST EAST
ROSEMOUNT, MN 55068
Phone (651) 423-2377

Additional Remarks

FOR CD CTC MINNEAPOLIS ARTCC AT 651-463-5588.

Instrument Procedures

There are no published instrument procedures at MY52.

Some nearby airports with instrument procedures:

KSGS - South St Paul Municipal Airport-Richard E Fleming Field (8 nm N)
KLVN - Airlake Airport (10 nm SW)
KMSP - Minneapolis-St Paul International/Wold-Chamberlain Airport (12 nm NW)
KSTP - St Paul Downtown Airport Holman Field (13 nm N)
21D - Lake Elmo Airport (19 nm NE)
KFCM - Flying Cloud Airport (19 nm W)
 
Loc | Ops | Rwys | IFR | FBO | Links
Com | Nav | Svcs | Stats | Notes
Area around MY52 (Turkey Track Airport)
 
Road maps at: MapQuest Bing Google
 
Aerial photo
No photo
 
Sectional chart

 
Airport distance calculator
Flying to Turkey Track Airport? Find the distance to fly.

From to MY52

Sunrise and sunset
Times for 16-May-2021
 Local
(UTC-5)
 Zulu
(UTC)
Morning civil twilight05:1010:10
Sunrise05:4410:44
Sunset20:3301:33
Evening civil twilight21:0702:07

Current date and time
Zulu (UTC)  17-May-2021 01:14:17
Local (UTC-5)  16-May-2021 20:14:17
 
METAR
KSGS 
9nm NW 
170055Z AUTO 14004KT 10SM CLR 22/10 A3004 RMK AO2 T02150101
KLVN 
10nm SW 
170055Z AUTO 15005KT 10SM SCT070 SCT075 21/08 A3004 RMK AO2
KMSP 
13nm NW 
170053Z 12010KT 10SM FEW060 BKN250 22/11 A3004 RMK AO2 SLP173 T02170106
KSTP 
13nm N 
170053Z 12007KT 10SM CLR 21/11 A3005 RMK AO2 SLP172 T02110111
KSYN 
15nm S 
170055Z AUTO 16009KT 10SM CLR 22/09 A3004 RMK AO2 T02150090
K21D 
19nm NE 
170055Z AUTO 12005KT 10SM CLR 19/11 A3007 RMK AO2
KFCM 
19nm W 
170053Z 15004KT 10SM CLR 21/09 A3003 RMK AO2 SLP168 T02060089
TAF
KMSP 
13nm NW 
162024Z 1620/1724 13009KT P6SM SCT040 SCT150 FM170000 18007KT P6SM SCT200 FM170300 15004KT P6SM SCT200 FM171400 11004KT P6SM FEW200
NOTAMs
Click for the latest NOTAMs
NOTAMs are issued by the DoD/FAA and will open in a separate window not controlled by AirNav.

 

 
 

Would you like to see your business listed on this page?

 If your business provides an interesting product or service to pilots, flight crews, aircraft, or users of the Turkey Track Airport, you should consider listing it here.  To start the listing process, click on the button below
 
Add a business
 

Other Pages about Turkey Track Airport

Update a link
 
Copyright © AirNav, LLC. All rights reserved. Privacy Policy  Contact